Time;durP1;ratioP1;P1;durP2;ratioP2;P2;SDS_P1;SDS_P2;PMS_P1;PMS_P2;Temp;Humidity;BMP_temperature;BMP_pressure;BME280_temperature;BME280_humidity;BME280_pressure;Samples;Min_cycle;Max_cycle;Signal;HPM_P1;HPM_P2
2023/04/05 00:01:52;;;;;;;2.85;1.67;;;4.00;99.90;;;;;;5050251;28;20053;-53
2023/04/05 00:04:19;;;;;;;4.80;3.17;;;4.00;99.90;;;;;;5050095;28;20040;-51
2023/04/05 00:06:49;;;;;;;3.60;2.47;;;4.00;99.90;;;;;;5036326;28;20056;-50
2023/04/05 00:09:17;;;;;;;1.98;1.80;;;4.00;99.90;;;;;;5031469;28;20063;-54
2023/04/05 00:11:43;;;;;;;3.03;1.55;;;4.10;99.90;;;;;;5034184;28;20038;-53
2023/04/05 00:14:08;;;;;;;1.90;1.80;;;4.00;99.90;;;;;;5053491;28;20025;-55
2023/04/05 00:16:35;;;;;;;1.27;1.20;;;4.10;99.90;;;;;;5039501;28;20079;-56
2023/04/05 00:19:01;;;;;;;1.92;1.70;;;4.00;99.90;;;;;;5044883;28;20116;-53
2023/04/05 00:21:26;;;;;;;1.95;1.80;;;4.10;99.90;;;;;;5038414;28;20112;-65
2023/04/05 00:23:55;;;;;;;3.15;1.98;;;4.00;99.90;;;;;;5047848;28;20541;-57
2023/04/05 00:26:21;;;;;;;2.25;1.55;;;4.00;99.90;;;;;;5043332;28;20049;-60
2023/04/05 00:28:49;;;;;;;1.60;1.50;;;3.90;99.90;;;;;;5040955;28;20033;-54
2023/04/05 00:31:16;;;;;;;1.17;1.10;;;3.80;99.90;;;;;;5049546;28;20032;-51
2023/04/05 00:33:42;;;;;;;1.95;1.35;;;3.90;99.90;;;;;;5048437;28;20025;-55
2023/04/05 00:36:11;;;;;;;3.08;1.85;;;4.00;99.90;;;;;;5040359;28;20550;-55
2023/04/05 00:38:38;;;;;;;1.40;1.30;;;4.00;99.90;;;;;;5053653;28;20033;-65
2023/04/05 00:41:03;;;;;;;2.58;2.10;;;4.00;99.90;;;;;;5035270;28;20061;-55
2023/04/05 00:43:29;;;;;;;2.50;2.30;;;4.10;99.90;;;;;;5039702;28;20522;-62
2023/04/05 00:45:55;;;;;;;1.10;1.05;;;4.10;99.90;;;;;;5074050;28;20112;-59
2023/04/05 00:48:21;;;;;;;2.97;1.92;;;4.10;99.90;;;;;;5034109;28;20061;-59
2023/04/05 00:50:49;;;;;;;1.30;0.90;;;4.20;99.90;;;;;;5047211;28;20083;-50
2023/04/05 00:53:19;;;;;;;1.73;1.63;;;4.20;99.90;;;;;;5055662;28;20048;-61
2023/04/05 00:55:49;;;;;;;1.15;1.08;;;4.30;99.90;;;;;;5044567;28;20261;-60
2023/04/05 00:58:21;;;;;;;2.08;1.40;;;4.40;99.90;;;;;;5046051;28;20029;-51
2023/04/05 01:01:12;;;;;;;1.67;1.13;;;4.30;99.90;;;;;;5039191;28;20474;-54
2023/04/05 01:03:40;;;;;;;3.10;1.95;;;4.30;99.90;;;;;;5038935;28;20429;-58
2023/04/05 01:06:43;;;;;;;2.45;2.25;;;4.30;99.90;;;;;;5040968;28;20500;-56
2023/04/05 01:09:29;;;;;;;0.82;0.82;;;4.40;99.90;;;;;;5042715;28;20060;-68
2023/04/05 01:11:57;;;;;;;1.35;1.25;;;4.40;99.90;;;;;;5039664;28;20045;-58
2023/04/05 01:14:23;;;;;;;1.42;1.33;;;4.30;99.90;;;;;;5035740;28;20136;-62
2023/04/05 01:16:50;;;;;;;0.93;0.88;;;4.30;99.90;;;;;;5044068;28;20116;-58
2023/04/05 01:19:16;;;;;;;1.70;1.33;;;4.30;99.90;;;;;;5047309;28;20123;-59
2023/04/05 01:21:45;;;;;;;1.35;1.25;;;4.20;99.90;;;;;;5067564;28;20129;-54
2023/04/05 01:24:56;;;;;;;1.30;1.20;;;4.10;99.90;;;;;;5040450;28;20052;-54
2023/04/05 01:27:48;;;;;;;0.85;0.85;;;4.10;99.90;;;;;;5040466;28;20053;-54
2023/04/05 01:30:31;;;;;;;1.38;1.02;;;4.10;99.90;;;;;;5046714;28;20040;-51
2023/04/05 01:33:18;;;;;;;4.53;1.63;;;4.00;99.90;;;;;;5038300;28;20041;-59
2023/04/05 01:35:55;;;;;;;0.70;0.70;;;4.00;99.90;;;;;;5042414;28;20029;-58
2023/04/05 01:38:26;;;;;;;1.00;0.95;;;4.00;99.90;;;;;;5038806;28;20120;-56
2023/04/05 01:40:53;;;;;;;0.88;0.82;;;3.90;99.90;;;;;;5039794;28;20116;-50
2023/04/05 01:43:19;;;;;;;1.52;1.23;;;3.90;99.90;;;;;;5039591;28;20072;-56
2023/04/05 01:45:46;;;;;;;0.68;0.68;;;3.90;99.90;;;;;;5043652;28;20041;-47
2023/04/05 01:48:22;;;;;;;1.50;1.40;;;3.90;99.90;;;;;;5041422;28;20037;-59
2023/04/05 01:50:47;;;;;;;1.70;1.55;;;3.90;99.90;;;;;;5026342;28;20044;-58
2023/04/05 01:53:13;;;;;;;1.83;1.02;;;3.90;99.90;;;;;;5043346;28;20436;-61
2023/04/05 01:55:39;;;;;;;0.73;0.73;;;3.90;99.90;;;;;;5040452;28;20133;-59
2023/04/05 01:58:05;;;;;;;1.50;1.40;;;3.70;99.90;;;;;;5038825;28;20400;-57
2023/04/05 02:00:31;;;;;;;3.17;1.40;;;3.80;99.90;;;;;;5033945;28;20045;-52
2023/04/05 02:02:57;;;;;;;1.23;1.10;;;3.80;99.90;;;;;;5051466;28;20071;-59
2023/04/05 02:05:23;;;;;;;1.27;1.17;;;3.80;99.90;;;;;;5025501;28;20077;-60
2023/04/05 02:07:48;;;;;;;0.95;0.95;;;3.70;99.90;;;;;;5035284;28;20042;-61
2023/04/05 02:10:14;;;;;;;0.80;0.80;;;3.70;99.90;;;;;;5041455;28;20036;-56
2023/04/05 02:12:40;;;;;;;1.77;1.55;;;3.80;99.90;;;;;;5039895;28;20028;-62
2023/04/05 02:15:06;;;;;;;1.98;0.77;;;3.80;99.90;;;;;;5048054;28;20550;-58
2023/04/05 02:17:38;;;;;;;2.25;0.80;;;3.80;99.90;;;;;;5010589;28;20046;-53
2023/04/05 02:20:09;;;;;;;2.63;1.37;;;3.70;99.90;;;;;;5040728;28;20037;-55
2023/04/05 02:22:35;;;;;;;0.80;0.80;;;3.80;99.90;;;;;;5000474;28;20291;-50
2023/04/05 02:25:02;;;;;;;1.10;1.02;;;3.80;99.90;;;;;;5044756;28;20140;-57
2023/04/05 02:27:29;;;;;;;1.60;0.70;;;3.90;99.90;;;;;;5045908;28;20034;-58
2023/04/05 02:29:56;;;;;;;0.90;0.90;;;3.90;99.90;;;;;;5054747;28;20057;-59
2023/04/05 02:32:22;;;;;;;1.38;1.33;;;3.90;99.90;;;;;;5043010;28;20064;-57
2023/04/05 02:34:49;;;;;;;3.35;0.88;;;3.80;99.90;;;;;;5032423;28;20050;-52
2023/04/05 02:37:15;;;;;;;0.90;0.90;;;3.70;99.90;;;;;;5042824;28;20075;-50
2023/04/05 02:39:41;;;;;;;1.00;0.93;;;3.70;99.90;;;;;;5035397;28;20052;-55
2023/04/05 02:42:07;;;;;;;1.23;1.17;;;3.70;99.90;;;;;;5035386;28;20484;-51
2023/04/05 02:44:32;;;;;;;1.17;1.08;;;3.80;99.90;;;;;;5044190;28;20179;-59
2023/04/05 02:46:58;;;;;;;1.42;1.33;;;3.80;99.90;;;;;;5044348;28;20059;-58
2023/04/05 02:49:24;;;;;;;1.38;1.17;;;3.80;99.90;;;;;;5045201;28;20080;-67
2023/04/05 02:51:50;;;;;;;0.98;0.98;;;3.80;99.90;;;;;;5032509;28;20040;-58
2023/04/05 02:54:16;;;;;;;1.33;1.02;;;3.90;99.90;;;;;;5037269;28;20029;-65
2023/04/05 02:56:42;;;;;;;0.60;0.60;;;3.90;99.90;;;;;;5051102;28;20039;-58
2023/04/05 02:59:08;;;;;;;1.40;1.30;;;3.90;99.90;;;;;;5034211;28;20079;-57
2023/04/05 03:01:35;;;;;;;0.60;0.60;;;3.80;99.90;;;;;;5035601;28;20029;-56
2023/04/05 03:04:01;;;;;;;0.85;0.85;;;3.70;99.90;;;;;;5053024;28;20032;-54
2023/04/05 03:06:27;;;;;;;1.48;0.98;;;3.70;99.90;;;;;;5041029;28;20028;-56
2023/04/05 03:08:54;;;;;;;0.80;0.80;;;3.80;99.90;;;;;;5038135;28;20551;-55
2023/04/05 03:11:20;;;;;;;0.75;0.75;;;3.60;99.90;;;;;;5024515;28;20037;-55
2023/04/05 03:13:46;;;;;;;1.20;1.10;;;3.70;99.90;;;;;;5058500;28;20365;-66
2023/04/05 03:16:12;;;;;;;1.02;0.88;;;3.70;99.90;;;;;;5042147;28;20472;-61
2023/04/05 03:18:37;;;;;;;1.70;1.20;;;3.50;99.90;;;;;;5055807;28;20048;-56
2023/04/05 03:21:03;;;;;;;2.10;1.73;;;3.70;99.90;;;;;;5045183;28;20033;-61
2023/04/05 03:23:30;;;;;;;0.75;0.75;;;3.70;99.90;;;;;;5040000;28;20052;-47
2023/04/05 03:25:59;;;;;;;1.20;1.10;;;3.70;99.90;;;;;;5039619;28;20041;-60
2023/04/05 03:28:25;;;;;;;1.75;1.08;;;3.60;99.90;;;;;;5041467;28;20463;-62
2023/04/05 03:30:51;;;;;;;1.50;1.40;;;3.70;99.90;;;;;;5006479;28;20128;-58
2023/04/05 03:33:17;;;;;;;0.82;0.82;;;3.90;99.90;;;;;;5033551;28;20101;-55
2023/04/05 03:35:43;;;;;;;1.75;1.38;;;3.70;99.90;;;;;;5014991;28;20030;-59
2023/04/05 03:38:09;;;;;;;1.33;1.23;;;3.80;99.90;;;;;;5029723;28;20048;-57
2023/04/05 03:40:35;;;;;;;1.75;1.45;;;3.70;99.90;;;;;;5018694;28;20029;-58
2023/04/05 03:43:00;;;;;;;0.60;0.60;;;3.70;99.90;;;;;;5037459;28;20060;-59
2023/04/05 03:45:28;;;;;;;1.17;1.13;;;3.70;99.90;;;;;;5010411;28;20084;-56
2023/04/05 03:47:54;;;;;;;1.80;1.38;;;3.80;99.90;;;;;;5029770;28;20045;-50
2023/04/05 03:50:20;;;;;;;0.98;0.90;;;3.80;99.90;;;;;;5035253;28;20109;-57
2023/04/05 03:52:46;;;;;;;2.70;1.67;;;3.90;99.90;;;;;;5013000;28;20069;-58
2023/04/05 03:55:15;;;;;;;2.33;1.63;;;4.00;99.90;;;;;;5031553;28;20072;-55
2023/04/05 03:57:41;;;;;;;3.50;1.52;;;4.00;99.90;;;;;;5031895;28;20041;-58
2023/04/05 04:00:16;;;;;;;1.00;0.98;;;4.00;99.90;;;;;;5035831;28;20501;-55
2023/04/05 04:02:46;;;;;;;1.15;1.05;;;4.00;99.90;;;;;;5037599;28;20065;-53
2023/04/05 04:05:14;;;;;;;3.22;2.22;;;3.90;99.90;;;;;;5031949;28;20056;-57
2023/04/05 04:07:40;;;;;;;1.58;1.48;;;3.90;99.90;;;;;;5031986;28;20418;-52
2023/04/05 04:10:07;;;;;;;2.53;1.42;;;3.90;99.90;;;;;;5040207;28;20046;-63
2023/04/05 04:12:33;;;;;;;1.50;1.30;;;3.80;99.90;;;;;;5032072;28;20510;-63
2023/04/05 04:14:59;;;;;;;1.75;1.55;;;3.90;99.90;;;;;;5030962;28;20155;-59
2023/04/05 04:17:35;;;;;;;2.90;1.75;;;3.90;99.90;;;;;;5033542;28;20038;-61
2023/04/05 04:20:06;;;;;;;1.08;0.93;;;4.00;99.90;;;;;;5039054;28;20178;-66
2023/04/05 04:22:32;;;;;;;0.80;0.80;;;4.00;99.90;;;;;;5034841;28;20038;-55
2023/04/05 04:25:02;;;;;;;1.55;1.40;;;4.00;99.90;;;;;;5039000;28;20057;-62
2023/04/05 04:27:29;;;;;;;0.77;0.77;;;4.10;99.90;;;;;;5035502;28;20076;-60
2023/04/05 04:30:00;;;;;;;2.72;1.83;;;4.10;99.90;;;;;;5040044;28;20568;-61
2023/04/05 04:32:46;;;;;;;1.85;1.23;;;4.00;99.90;;;;;;5027499;28;20045;-60
2023/04/05 04:35:17;;;;;;;2.47;1.55;;;3.90;99.90;;;;;;5016710;28;20389;-50
2023/04/05 04:37:46;;;;;;;1.42;1.20;;;4.00;99.90;;;;;;5035461;28;20025;-58
2023/04/05 04:40:17;;;;;;;0.63;0.63;;;4.00;99.90;;;;;;5031332;28;20033;-55
2023/04/05 04:42:45;;;;;;;2.35;2.15;;;3.90;99.90;;;;;;5008375;28;20045;-54
2023/04/05 04:45:14;;;;;;;1.20;0.52;;;4.10;99.90;;;;;;5033668;28;20036;-61
2023/04/05 04:47:41;;;;;;;1.77;1.67;;;3.70;99.90;;;;;;5025784;28;20038;-57
2023/04/05 04:50:08;;;;;;;0.30;0.30;;;3.80;99.90;;;;;;5024807;28;20427;-51
2023/04/05 04:52:34;;;;;;;2.08;1.27;;;3.60;99.90;;;;;;5038590;28;20037;-54
2023/04/05 04:55:02;;;;;;;1.00;0.93;;;3.60;99.90;;;;;;5029259;28;20044;-57
2023/04/05 04:57:28;;;;;;;1.65;1.55;;;3.70;99.90;;;;;;5037485;28;20501;-57
2023/04/05 04:59:53;;;;;;;1.88;1.33;;;3.80;99.90;;;;;;5072036;28;20073;-50
2023/04/05 05:02:23;;;;;;;1.58;1.13;;;4.00;99.90;;;;;;5032485;28;20052;-49
2023/04/05 05:04:49;;;;;;;1.58;1.35;;;4.10;99.90;;;;;;5042463;28;20057;-53
2023/04/05 05:07:16;;;;;;;2.40;1.30;;;4.00;99.90;;;;;;5030692;28;20091;-48
2023/04/05 05:09:42;;;;;;;1.70;1.30;;;3.90;99.90;;;;;;5048301;28;20496;-57
2023/04/05 05:12:08;;;;;;;0.95;0.85;;;4.10;99.90;;;;;;5041217;28;20040;-52
2023/04/05 05:14:34;;;;;;;1.40;1.30;;;4.20;99.90;;;;;;5033665;28;20034;-48
2023/04/05 05:17:00;;;;;;;1.90;1.40;;;4.30;99.90;;;;;;5036242;28;20093;-52
2023/04/05 05:19:25;;;;;;;1.50;1.40;;;4.50;99.90;;;;;;5040362;28;20108;-46
2023/04/05 05:21:52;;;;;;;1.38;1.27;;;4.50;99.90;;;;;;5041199;28;20492;-53
2023/04/05 05:24:19;;;;;;;1.02;0.93;;;4.60;99.90;;;;;;5034799;28;20124;-58
2023/04/05 05:26:45;;;;;;;1.75;1.55;;;4.70;99.90;;;;;;5048132;28;20036;-54
2023/04/05 05:29:10;;;;;;;1.65;0.90;;;4.70;99.90;;;;;;5031128;28;20397;-51
2023/04/05 05:31:38;;;;;;;1.05;0.90;;;4.60;99.90;;;;;;5024669;28;20072;-50
2023/04/05 05:34:03;;;;;;;0.98;0.95;;;4.60;99.90;;;;;;5038255;28;20037;-51
2023/04/05 05:36:30;;;;;;;1.92;1.38;;;4.70;99.90;;;;;;5049627;28;20040;-50
2023/04/05 05:38:55;;;;;;;1.70;1.52;;;4.90;99.90;;;;;;5047728;28;20031;-53
2023/04/05 05:41:21;;;;;;;1.63;1.50;;;4.80;99.90;;;;;;5033219;28;20037;-55
2023/04/05 05:43:47;;;;;;;1.42;1.33;;;4.90;99.90;;;;;;5013778;28;20030;-49
2023/04/05 05:46:13;;;;;;;2.75;2.03;;;5.00;99.90;;;;;;5029761;28;20473;-49
2023/04/05 05:48:40;;;;;;;1.02;1.00;;;5.10;99.90;;;;;;5067211;28;20076;-52
2023/04/05 05:51:08;;;;;;;3.47;1.95;;;5.20;99.90;;;;;;5045487;28;20029;-50
2023/04/05 05:53:38;;;;;;;4.00;2.88;;;5.10;99.90;;;;;;5032107;28;20030;-49
2023/04/05 05:56:05;;;;;;;3.42;1.35;;;5.30;99.90;;;;;;5037659;28;20033;-55
2023/04/05 05:58:31;;;;;;;1.48;1.38;;;5.20;99.90;;;;;;5045117;28;20107;-55
2023/04/05 06:00:57;;;;;;;2.45;1.23;;;5.10;99.90;;;;;;5038647;28;20032;-53
2023/04/05 06:03:28;;;;;;;3.00;1.42;;;5.00;99.90;;;;;;5039358;28;20374;-50
2023/04/05 06:05:56;;;;;;;1.95;1.67;;;5.20;99.90;;;;;;5042893;28;20029;-53
2023/04/05 06:08:28;;;;;;;2.40;1.20;;;5.20;99.90;;;;;;5068380;28;20090;-54
2023/04/05 06:10:54;;;;;;;1.15;1.05;;;5.30;99.90;;;;;;5036504;28;20029;-47
2023/04/05 06:13:20;;;;;;;4.13;2.55;;;5.30;99.90;;;;;;5034119;28;20037;-49
2023/04/05 06:15:49;;;;;;;0.98;0.90;;;5.40;99.90;;;;;;5041431;28;20029;-47
2023/04/05 06:18:15;;;;;;;3.42;2.20;;;5.30;99.90;;;;;;5037175;28;20384;-57
2023/04/05 06:20:44;;;;;;;2.17;1.10;;;5.60;99.90;;;;;;5031698;28;20060;-47
2023/04/05 06:23:10;;;;;;;4.15;1.27;;;5.70;99.90;;;;;;5011806;28;20037;-51
2023/04/05 06:25:36;;;;;;;1.48;1.25;;;5.60;99.90;;;;;;5037842;28;20028;-53
2023/04/05 06:28:03;;;;;;;2.35;1.88;;;5.30;99.90;;;;;;5043528;28;20366;-55
2023/04/05 06:30:30;;;;;;;1.92;1.48;;;5.50;99.90;;;;;;5040457;28;20058;-56
2023/04/05 06:32:56;;;;;;;2.75;1.35;;;5.70;99.90;;;;;;5040080;28;20020;-50
2023/04/05 06:35:23;;;;;;;1.52;1.42;;;5.60;99.90;;;;;;5027918;28;20387;-48
2023/04/05 06:37:49;;;;;;;0.57;0.57;;;5.70;99.90;;;;;;5042274;28;20032;-50
2023/04/05 06:40:15;;;;;;;1.23;0.77;;;5.40;99.90;;;;;;5042349;28;20532;-49
2023/04/05 06:42:42;;;;;;;0.60;0.50;;;5.30;99.90;;;;;;5032143;28;20173;-53
2023/04/05 06:45:08;;;;;;;0.88;0.82;;;5.60;99.90;;;;;;5039035;28;20028;-51
2023/04/05 06:47:34;;;;;;;4.68;3.40;;;5.30;99.90;;;;;;5033608;28;20048;-51
2023/04/05 06:50:01;;;;;;;0.50;0.50;;;5.30;99.90;;;;;;5033702;28;20033;-56
2023/04/05 06:52:27;;;;;;;1.30;1.02;;;5.40;99.90;;;;;;5035575;28;20029;-53
2023/04/05 06:54:53;;;;;;;0.80;0.80;;;5.40;99.90;;;;;;5041019;28;20469;-55
2023/04/05 06:57:19;;;;;;;0.80;0.80;;;5.40;99.90;;;;;;5040377;28;20079;-50
2023/04/05 06:59:45;;;;;;;0.40;0.40;;;5.10;99.90;;;;;;5042795;28;20025;-51
2023/04/05 07:02:11;;;;;;;1.00;0.98;;;5.10;99.90;;;;;;5036809;28;20504;-51
2023/04/05 07:04:38;;;;;;;0.63;0.63;;;4.90;99.90;;;;;;5030710;28;20421;-47
2023/04/05 07:07:04;;;;;;;1.45;0.90;;;5.00;99.90;;;;;;5039814;28;20037;-54
2023/04/05 07:09:31;;;;;;;1.60;1.20;;;5.20;99.90;;;;;;5035196;28;20476;-51
2023/04/05 07:12:08;;;;;;;0.40;0.40;;;5.30;99.90;;;;;;5071019;28;20025;-56
2023/04/05 07:14:35;;;;;;;0.70;0.70;;;5.60;99.90;;;;;;5040953;28;20022;-51
2023/04/05 07:17:01;;;;;;;0.70;0.70;;;5.40;99.90;;;;;;5043235;28;20486;-57
2023/04/05 07:19:27;;;;;;;2.30;1.30;;;5.50;99.90;;;;;;5028519;28;20041;-54
2023/04/05 07:21:55;;;;;;;2.83;1.45;;;5.80;99.90;;;;;;5033179;28;20655;-50
2023/04/05 07:24:20;;;;;;;1.52;1.42;;;6.10;99.90;;;;;;5033953;28;20102;-55
2023/04/05 07:26:46;;;;;;;1.63;1.50;;;6.20;99.90;;;;;;5041734;28;20030;-53
2023/04/05 07:29:12;;;;;;;1.00;0.77;;;5.90;99.90;;;;;;5033661;28;20033;-52
2023/04/05 07:31:38;;;;;;;0.80;0.80;;;5.90;99.90;;;;;;5031563;28;20470;-51
2023/04/05 07:34:05;;;;;;;1.48;0.93;;;6.00;99.90;;;;;;5028343;28;20033;-55
2023/04/05 07:36:30;;;;;;;0.73;0.70;;;6.10;99.90;;;;;;5033183;28;20033;-51
2023/04/05 07:38:56;;;;;;;0.65;0.65;;;5.80;99.90;;;;;;5052610;28;20496;-52
2023/04/05 07:41:24;;;;;;;0.73;0.73;;;6.00;99.90;;;;;;5038394;28;20041;-51
2023/04/05 07:43:50;;;;;;;1.25;1.15;;;6.10;99.90;;;;;;5036535;28;20033;-57
2023/04/05 07:46:16;;;;;;;2.17;0.82;;;6.10;99.90;;;;;;5031804;28;20367;-51
2023/04/05 07:48:42;;;;;;;0.77;0.77;;;6.10;99.90;;;;;;5029316;28;20021;-57
2023/04/05 07:51:10;;;;;;;0.60;0.60;;;6.20;99.90;;;;;;5032029;28;20460;-48
2023/04/05 07:53:36;;;;;;;0.98;0.88;;;6.20;99.90;;;;;;5031394;28;20362;-53
2023/04/05 07:56:09;;;;;;;4.05;1.58;;;;;;;;;;5033693;28;20037;-55
2023/04/05 07:58:39;;;;;;;3.25;1.58;;;6.80;99.90;;;;;;5033075;28;20041;-53
2023/04/05 08:01:05;;;;;;;1.05;0.98;;;6.70;99.90;;;;;;5030639;28;20036;-54
2023/04/05 08:03:33;;;;;;;6.95;5.30;;;6.60;99.90;;;;;;5031394;28;20040;-53
2023/04/05 08:06:09;;;;;;;2.47;2.13;;;7.10;99.90;;;;;;5031671;28;20047;-53
2023/04/05 08:08:35;;;;;;;1.60;1.50;;;7.10;99.90;;;;;;5030652;28;20041;-50
2023/04/05 08:11:05;;;;;;;1.13;1.02;;;6.90;99.90;;;;;;5053155;28;20045;-49
2023/04/05 08:13:32;;;;;;;4.00;3.45;;;7.00;99.90;;;;;;5032885;28;20752;-54
2023/04/05 08:15:59;;;;;;;0.98;0.75;;;7.30;99.90;;;;;;5034254;28;20029;-51
2023/04/05 08:18:25;;;;;;;0.50;0.50;;;7.20;99.90;;;;;;5038204;28;20040;-52
2023/04/05 08:20:56;;;;;;;1.45;1.35;;;7.30;99.90;;;;;;5031990;28;20022;-50
2023/04/05 08:23:22;;;;;;;0.80;0.80;;;7.20;99.90;;;;;;5027283;28;20194;-50
2023/04/05 08:25:47;;;;;;;0.80;0.80;;;7.20;99.90;;;;;;5046526;28;20113;-52
2023/04/05 08:28:13;;;;;;;1.42;1.33;;;7.20;99.90;;;;;;5041663;28;20048;-52
2023/04/05 08:30:40;;;;;;;0.90;0.90;;;;;;;;;;5041715;28;20025;-48
2023/04/05 08:33:06;;;;;;;1.25;1.02;;;7.60;99.90;;;;;;5042745;28;20500;-54
2023/04/05 08:35:35;;;;;;;2.33;1.23;;;7.90;99.90;;;;;;5036439;28;20028;-51
2023/04/05 08:38:01;;;;;;;2.83;2.35;;;8.10;99.90;;;;;;5040011;28;20025;-58
2023/04/05 08:40:42;;;;;;;2.80;1.95;;;8.30;99.90;;;;;;5011307;28;20038;-51
2023/04/05 08:43:46;;;;;;;0.77;0.77;;;8.10;99.90;;;;;;5057119;28;20041;-43
2023/04/05 08:46:15;;;;;;;1.13;0.85;;;8.20;99.90;;;;;;4994483;28;20042;-47
2023/04/05 08:48:41;;;;;;;0.80;0.80;;;7.90;99.90;;;;;;4994929;28;20041;-46
2023/04/05 08:51:08;;;;;;;1.10;1.00;;;8.10;99.90;;;;;;4994878;28;20034;-49
2023/04/05 08:53:34;;;;;;;1.38;1.27;;;8.60;99.90;;;;;;4994792;28;20038;-50
2023/04/05 08:56:01;;;;;;;2.55;1.98;;;9.00;99.90;;;;;;4994175;28;20037;-51
2023/04/05 08:58:28;;;;;;;1.05;0.90;;;8.70;99.90;;;;;;4994521;28;20378;-53
2023/04/05 09:00:55;;;;;;;0.73;0.73;;;8.40;99.90;;;;;;4994484;28;20026;-48
2023/04/05 09:03:22;;;;;;;1.35;1.20;;;8.40;99.90;;;;;;4994421;28;20685;-48
2023/04/05 09:05:50;;;;;;;0.80;0.80;;;8.60;99.90;;;;;;4989059;28;20038;-58
2023/04/05 09:08:16;;;;;;;0.85;0.85;;;8.20;99.60;;;;;;4993653;28;20441;-47
2023/04/05 09:10:43;;;;;;;1.40;1.17;;;8.20;99.90;;;;;;4992089;28;20081;-48
2023/04/05 09:13:09;;;;;;;1.33;1.23;;;8.50;99.90;;;;;;4958392;28;20414;-51
2023/04/05 09:15:38;;;;;;;1.33;1.23;;;9.00;99.90;;;;;;4990402;28;20152;-55
2023/04/05 09:18:04;;;;;;;2.78;2.13;;;9.00;99.40;;;;;;4977938;28;20096;-50
2023/04/05 09:20:30;;;;;;;1.67;1.33;;;;;;;;;;4994424;28;20105;-53
2023/04/05 09:22:56;;;;;;;2.08;0.98;;;8.80;98.70;;;;;;5014707;28;20370;-51
2023/04/05 09:25:37;;;;;;;0.85;0.80;;;8.60;98.80;;;;;;5018246;28;20145;-47
2023/04/05 09:28:04;;;;;;;1.77;1.40;;;8.30;98.20;;;;;;5017228;28;20053;-48
2023/04/05 09:30:30;;;;;;;1.85;1.25;;;9.10;97.10;;;;;;5021811;28;20026;-54
2023/04/05 09:32:56;;;;;;;1.10;1.08;;;8.70;98.20;;;;;;5021927;28;20120;-46
2023/04/05 09:35:24;;;;;;;1.13;1.02;;;8.60;99.60;;;;;;5035557;28;20381;-53
2023/04/05 09:38:06;;;;;;;1.42;1.00;;;8.80;98.80;;;;;;5035477;28;20029;-51
2023/04/05 09:40:45;;;;;;;1.00;0.88;;;8.80;98.40;;;;;;5031444;28;20111;-50
2023/04/05 09:43:14;;;;;;;2.63;0.68;;;9.10;98.90;;;;;;5053194;28;20033;-46
2023/04/05 09:45:41;;;;;;;2.35;1.33;;;;;;;;;;5024204;28;20551;-55
2023/04/05 09:48:08;;;;;;;0.85;0.85;;;9.30;97.10;;;;;;5024702;28;20072;-53
2023/04/05 09:50:37;;;;;;;1.25;1.15;;;9.40;98.00;;;;;;5025952;28;20493;-53
2023/04/05 09:53:15;;;;;;;1.25;0.98;;;8.60;98.40;;;;;;5020145;28;20493;-50
2023/04/05 09:55:42;;;;;;;1.48;1.08;;;8.50;99.90;;;;;;5023343;28;20041;-46
2023/04/05 09:58:12;;;;;;;3.08;1.48;;;8.50;99.90;;;;;;5022106;28;20119;-49
2023/04/05 10:00:51;;;;;;;1.65;1.55;;;8.80;99.90;;;;;;5023809;28;20087;-48
2023/04/05 10:03:18;;;;;;;2.13;1.95;;;9.60;98.90;;;;;;5012876;28;20041;-47
2023/04/05 10:05:44;;;;;;;2.47;1.67;;;9.50;97.90;;;;;;5023554;28;20413;-47
2023/04/05 10:08:11;;;;;;;0.80;0.80;;;;;;;;;;5007598;28;20045;-49
2023/04/05 10:10:46;;;;;;;3.45;1.70;;;9.50;96.60;;;;;;5024508;28;21817;-46
2023/04/05 10:13:12;;;;;;;2.50;1.58;;;9.80;97.80;;;;;;5026166;28;20140;-50
2023/04/05 10:15:42;;;;;;;1.25;1.15;;;9.40;97.20;;;;;;5005083;28;20595;-50
2023/04/05 10:18:13;;;;;;;2.65;1.02;;;8.80;97.10;;;;;;5023298;28;20041;-50
2023/04/05 10:20:40;;;;;;;1.23;1.13;;;8.50;97.40;;;;;;5041780;28;20021;-48
2023/04/05 10:23:16;;;;;;;0.55;0.50;;;8.10;97.60;;;;;;5038315;28;20028;-49
2023/04/05 10:25:51;;;;;;;3.38;1.65;;;8.00;98.30;;;;;;5025781;28;20509;-49
2023/04/05 10:28:26;;;;;;;2.38;0.75;;;;;;;;;;5025466;28;20163;-49
2023/04/05 10:31:15;;;;;;;1.10;1.00;;;7.60;97.20;;;;;;5024801;28;20029;-49
2023/04/05 10:33:46;;;;;;;3.22;1.27;;;8.10;98.60;;;;;;5023719;28;20021;-51
2023/04/05 10:36:47;;;;;;;1.20;1.10;;;8.10;97.70;;;;;;5024683;28;20037;-49
2023/04/05 10:39:16;;;;;;;1.33;1.13;;;7.90;96.40;;;;;;5020218;28;20037;-49
2023/04/05 10:41:47;;;;;;;1.70;1.60;;;8.00;98.00;;;;;;5011113;28;20144;-47
2023/04/05 10:44:14;;;;;;;0.57;0.57;;;8.30;97.90;;;;;;5021303;28;20092;-48
2023/04/05 10:46:40;;;;;;;1.55;1.45;;;8.00;97.00;;;;;;5025697;28;20367;-50
2023/04/05 10:49:26;;;;;;;3.80;2.60;;;7.80;97.40;;;;;;5032044;28;20048;-51
2023/04/05 10:51:53;;;;;;;4.03;1.80;;;8.00;98.30;;;;;;5015731;28;20029;-51
2023/04/05 10:54:19;;;;;;;7.43;4.95;;;8.20;97.60;;;;;;5031832;28;20029;-50
2023/04/05 10:56:45;;;;;;;8.00;3.30;;;8.10;96.30;;;;;;5031736;28;20061;-51
2023/04/05 10:59:12;;;;;;;2.83;2.40;;;8.20;98.00;;;;;;4998953;28;20586;-50
2023/04/05 11:01:39;;;;;;;1.23;0.90;;;8.00;98.00;;;;;;5031829;28;20022;-50
2023/04/05 11:04:15;;;;;;;0.65;0.65;;;7.90;97.10;;;;;;5031871;28;20056;-48
2023/04/05 11:06:47;;;;;;;1.73;1.27;;;8.10;98.50;;;;;;5031562;28;20079;-47
2023/04/05 11:09:19;;;;;;;1.02;0.93;;;8.00;97.60;;;;;;4998682;28;20075;-50
2023/04/05 11:11:47;;;;;;;0.85;0.85;;;8.00;97.50;;;;;;5031851;28;20098;-52
2023/04/05 11:14:24;;;;;;;1.67;1.17;;;8.30;98.30;;;;;;4982616;28;20041;-51
2023/04/05 11:16:58;;;;;;;2.35;1.77;;;8.30;98.60;;;;;;5033263;28;20033;-50
2023/04/05 11:19:42;;;;;;;0.93;0.82;;;8.10;96.90;;;;;;5033736;28;20496;-48
2023/04/05 11:22:08;;;;;;;0.70;0.70;;;8.30;97.70;;;;;;5033624;28;20408;-50
2023/04/05 11:24:55;;;;;;;1.40;1.30;;;7.90;97.40;;;;;;5033432;28;20141;-49
2023/04/05 11:27:36;;;;;;;2.22;1.42;;;7.70;98.30;;;;;;5033401;28;20084;-49
2023/04/05 11:30:04;;;;;;;0.60;0.60;;;7.90;99.90;;;;;;5031811;28;20045;-51
2023/04/05 11:32:44;;;;;;;0.77;0.77;;;7.40;99.90;;;;;;5033928;28;20087;-51
2023/04/05 11:35:13;;;;;;;1.35;1.15;;;;;;;;;;5033913;28;20029;-49
2023/04/05 11:37:55;;;;;;;1.15;1.05;;;;;;;;;;5033266;28;20027;-50
2023/04/05 11:40:29;;;;;;;0.95;0.85;;;6.70;98.60;;;;;;5033503;28;20539;-48
2023/04/05 11:43:04;;;;;;;1.02;1.02;;;6.90;98.80;;;;;;5033509;28;20420;-48
2023/04/05 11:45:34;;;;;;;1.50;1.40;;;6.80;99.20;;;;;;5033555;28;20057;-52
2023/04/05 11:48:11;;;;;;;0.50;0.50;;;7.10;99.20;;;;;;5031393;28;20128;-48
2023/04/05 11:50:40;;;;;;;3.00;1.20;;;7.10;98.40;;;;;;5022200;28;20083;-50
2023/04/05 11:53:13;;;;;;;1.83;1.70;;;6.90;98.60;;;;;;5020810;28;20046;-48
2023/04/05 11:55:41;;;;;;;0.88;0.70;;;7.10;99.00;;;;;;5019734;28;20084;-48
2023/04/05 11:58:27;;;;;;;1.77;1.67;;;;;;;;;;5022289;28;20044;-51
2023/04/05 12:01:06;;;;;;;0.60;0.50;;;6.80;98.90;;;;;;5021633;28;20034;-51
2023/04/05 12:03:33;;;;;;;1.38;1.25;;;6.60;99.20;;;;;;5021397;28;20599;-56
2023/04/05 12:06:03;;;;;;;1.33;0.93;;;6.70;99.20;;;;;;5021613;28;20053;-51
2023/04/05 12:08:39;;;;;;;0.85;0.85;;;6.60;98.30;;;;;;5025107;28;20038;-50
2023/04/05 12:11:10;;;;;;;1.38;1.27;;;6.60;98.20;;;;;;5024437;28;20034;-50
2023/04/05 12:13:37;;;;;;;0.60;0.60;;;6.60;98.50;;;;;;5023703;28;20038;-51
2023/04/05 12:16:04;;;;;;;1.50;1.40;;;6.60;98.80;;;;;;5030733;28;20501;-49
2023/04/05 12:18:32;;;;;;;1.08;1.08;;;6.80;99.10;;;;;;5028065;28;20075;-51
2023/04/05 12:20:59;;;;;;;0.80;0.80;;;7.00;98.80;;;;;;5016385;28;20107;-54
2023/04/05 12:23:25;;;;;;;2.65;1.55;;;;;;;;;;5023866;28;20046;-50
2023/04/05 12:25:53;;;;;;;0.52;0.52;;;7.30;99.00;;;;;;5026670;28;20033;-53
2023/04/05 12:28:19;;;;;;;6.07;2.00;;;7.10;98.10;;;;;;5024781;28;20127;-48
2023/04/05 12:30:48;;;;;;;1.38;1.25;;;7.20;98.60;;;;;;5019259;28;20034;-48
2023/04/05 12:33:14;;;;;;;1.35;1.25;;;7.40;98.40;;;;;;5032141;28;20034;-51
2023/04/05 12:35:40;;;;;;;0.85;0.85;;;7.30;98.10;;;;;;5023169;28;20037;-50
2023/04/05 12:38:07;;;;;;;1.20;1.17;;;7.30;98.20;;;;;;5017840;28;20025;-51
2023/04/05 12:40:34;;;;;;;2.08;1.90;;;7.30;98.30;;;;;;5037258;28;20430;-54
2023/04/05 12:43:05;;;;;;;1.35;1.02;;;7.40;98.90;;;;;;5038550;28;20032;-51
2023/04/05 12:45:38;;;;;;;1.33;0.95;;;7.40;97.80;;;;;;5038814;28;20112;-51
2023/04/05 12:48:09;;;;;;;1.55;1.45;;;7.50;98.40;;;;;;5036375;28;20041;-53
2023/04/05 12:50:40;;;;;;;1.60;1.50;;;7.50;97.70;;;;;;5036749;28;20037;-50
2023/04/05 12:53:06;;;;;;;3.38;1.40;;;7.60;98.10;;;;;;5016539;28;20037;-54
2023/04/05 12:55:38;;;;;;;2.28;1.83;;;;;;;;;;5048020;28;20029;-50
2023/04/05 12:58:04;;;;;;;1.67;1.50;;;7.90;97.60;;;;;;5016469;28;20430;-53
2023/04/05 13:00:31;;;;;;;2.63;2.40;;;7.80;97.50;;;;;;5031273;28;20428;-50
2023/04/05 13:02:58;;;;;;;3.47;1.73;;;7.90;96.80;;;;;;5016301;28;20375;-52
2023/04/05 13:05:28;;;;;;;1.35;1.23;;;8.00;96.60;;;;;;5034394;28;20030;-51
2023/04/05 13:07:54;;;;;;;4.03;1.88;;;7.90;96.80;;;;;;5036000;28;20034;-55
2023/04/05 13:10:22;;;;;;;3.83;2.70;;;8.00;97.20;;;;;;5036075;28;20029;-52